sensor_id;sensor_type;location;lat;lon;timestamp;pressure;altitude;pressure_sealevel;temperature;humidity
26083;BME280;13848;49.018;12.078;2023-04-04T00:02:11;98518.13;;;2.27;49.54
26083;BME280;13848;49.018;12.078;2023-04-04T00:04:37;98514.78;;;2.43;49.32
26083;BME280;13848;49.018;12.078;2023-04-04T00:07:03;98508.41;;;2.35;48.87
26083;BME280;13848;49.018;12.078;2023-04-04T00:09:29;98502.28;;;2.25;48.60
26083;BME280;13848;49.018;12.078;2023-04-04T00:11:56;98505.34;;;2.30;48.45
26083;BME280;13848;49.018;12.078;2023-04-04T00:14:22;98494.19;;;2.27;48.70
26083;BME280;13848;49.018;12.078;2023-04-04T00:16:48;98496.22;;;2.15;48.51
26083;BME280;13848;49.018;12.078;2023-04-04T00:19:14;98486.66;;;2.22;48.68
26083;BME280;13848;49.018;12.078;2023-04-04T00:21:40;98500.53;;;2.16;48.40
26083;BME280;13848;49.018;12.078;2023-04-04T00:24:06;98495.09;;;2.08;48.08
26083;BME280;13848;49.018;12.078;2023-04-04T00:26:32;98494.81;;;2.11;48.78
26083;BME280;13848;49.018;12.078;2023-04-04T00:28:59;98495.91;;;1.91;48.13
26083;BME280;13848;49.018;12.078;2023-04-04T00:31:25;98492.50;;;1.61;48.62
26083;BME280;13848;49.018;12.078;2023-04-04T00:33:51;98497.00;;;1.60;49.12
26083;BME280;13848;49.018;12.078;2023-04-04T00:36:17;98488.75;;;1.64;48.55
26083;BME280;13848;49.018;12.078;2023-04-04T00:38:43;98492.25;;;1.64;48.19
26083;BME280;13848;49.018;12.078;2023-04-04T00:41:10;98478.66;;;1.67;48.40
26083;BME280;13848;49.018;12.078;2023-04-04T00:43:36;98484.75;;;1.77;47.93
26083;BME280;13848;49.018;12.078;2023-04-04T00:46:03;98486.03;;;1.73;48.54
26083;BME280;13848;49.018;12.078;2023-04-04T00:48:29;98474.81;;;1.79;48.24
26083;BME280;13848;49.018;12.078;2023-04-04T00:50:55;98480.47;;;1.67;48.49
26083;BME280;13848;49.018;12.078;2023-04-04T00:53:21;98477.56;;;1.60;48.19
26083;BME280;13848;49.018;12.078;2023-04-04T00:55:47;98477.97;;;1.65;48.25
26083;BME280;13848;49.018;12.078;2023-04-04T00:58:13;98470.72;;;1.57;48.09
26083;BME280;13848;49.018;12.078;2023-04-04T01:00:39;98475.78;;;1.51;47.88
26083;BME280;13848;49.018;12.078;2023-04-04T01:03:08;98477.75;;;1.39;47.70
26083;BME280;13848;49.018;12.078;2023-04-04T01:05:33;98471.03;;;1.45;47.77
26083;BME280;13848;49.018;12.078;2023-04-04T01:08:00;98474.09;;;1.50;48.34
26083;BME280;13848;49.018;12.078;2023-04-04T01:10:26;98474.66;;;1.44;48.14
26083;BME280;13848;49.018;12.078;2023-04-04T01:12:54;98471.91;;;1.36;47.81
26083;BME280;13848;49.018;12.078;2023-04-04T01:15:21;98466.59;;;1.36;48.41
26083;BME280;13848;49.018;12.078;2023-04-04T01:17:48;98466.88;;;1.32;48.27
26083;BME280;13848;49.018;12.078;2023-04-04T01:20:19;98460.59;;;1.33;48.26
26083;BME280;13848;49.018;12.078;2023-04-04T01:22:49;98455.84;;;1.27;48.23
26083;BME280;13848;49.018;12.078;2023-04-04T01:25:17;98455.66;;;1.39;48.02
26083;BME280;13848;49.018;12.078;2023-04-04T01:27:44;98460.72;;;1.32;48.44
26083;BME280;13848;49.018;12.078;2023-04-04T01:30:11;98453.75;;;1.21;48.83
26083;BME280;13848;49.018;12.078;2023-04-04T01:32:43;98448.72;;;1.28;48.66
26083;BME280;13848;49.018;12.078;2023-04-04T01:35:17;98444.25;;;1.28;48.59
26083;BME280;13848;49.018;12.078;2023-04-04T01:37:53;98452.34;;;1.27;48.45
26083;BME280;13848;49.018;12.078;2023-04-04T01:40:22;98448.72;;;1.28;49.01
26083;BME280;13848;49.018;12.078;2023-04-04T01:42:51;98443.94;;;1.31;49.18
26083;BME280;13848;49.018;12.078;2023-04-04T01:45:18;98441.78;;;1.17;48.67
26083;BME280;13848;49.018;12.078;2023-04-04T01:47:45;98443.19;;;1.12;48.56
26083;BME280;13848;49.018;12.078;2023-04-04T01:50:11;98441.50;;;1.11;49.43
26083;BME280;13848;49.018;12.078;2023-04-04T01:52:37;98441.78;;;1.17;48.73
26083;BME280;13848;49.018;12.078;2023-04-04T01:55:04;98438.13;;;1.18;49.24
26083;BME280;13848;49.018;12.078;2023-04-04T01:57:30;98444.28;;;1.19;48.93
26083;BME280;13848;49.018;12.078;2023-04-04T01:59:57;98439.22;;;1.16;48.91
26083;BME280;13848;49.018;12.078;2023-04-04T02:02:23;98445.56;;;1.05;48.04
26083;BME280;13848;49.018;12.078;2023-04-04T02:04:49;98438.56;;;1.04;49.86
26083;BME280;13848;49.018;12.078;2023-04-04T02:07:15;98451.81;;;1.14;48.58
26083;BME280;13848;49.018;12.078;2023-04-04T02:09:41;98455.75;;;1.10;48.71
26083;BME280;13848;49.018;12.078;2023-04-04T02:12:07;98452.97;;;1.01;48.90
26083;BME280;13848;49.018;12.078;2023-04-04T02:14:33;98450.59;;;0.98;49.20
26083;BME280;13848;49.018;12.078;2023-04-04T02:17:00;98449.06;;;0.96;49.68
26083;BME280;13848;49.018;12.078;2023-04-04T02:19:26;98445.72;;;0.94;49.99
26083;BME280;13848;49.018;12.078;2023-04-04T02:21:52;98449.06;;;0.96;50.00
26083;BME280;13848;49.018;12.078;2023-04-04T02:24:18;98442.66;;;0.89;49.34
26083;BME280;13848;49.018;12.078;2023-04-04T02:26:43;98445.00;;;0.92;49.26
26083;BME280;13848;49.018;12.078;2023-04-04T02:29:09;98449.63;;;0.90;49.95
26083;BME280;13848;49.018;12.078;2023-04-04T02:31:35;98453.97;;;0.91;50.74
26083;BME280;13848;49.018;12.078;2023-04-04T02:34:02;98450.22;;;0.93;50.25
26083;BME280;13848;49.018;12.078;2023-04-04T02:36:28;98447.97;;;0.89;50.91
26083;BME280;13848;49.018;12.078;2023-04-04T02:38:54;98445.16;;;0.80;49.55
26083;BME280;13848;49.018;12.078;2023-04-04T02:41:20;98448.53;;;0.83;50.34
26083;BME280;13848;49.018;12.078;2023-04-04T02:43:46;98442.94;;;0.86;50.68
26083;BME280;13848;49.018;12.078;2023-04-04T02:46:12;98440.84;;;0.79;50.73
26083;BME280;13848;49.018;12.078;2023-04-04T02:48:38;98451.75;;;0.76;50.44
26083;BME280;13848;49.018;12.078;2023-04-04T02:51:05;98454.38;;;0.86;51.70
26083;BME280;13848;49.018;12.078;2023-04-04T02:53:31;98449.53;;;0.82;50.95
26083;BME280;13848;49.018;12.078;2023-04-04T02:55:57;98456.91;;;0.88;50.83
26083;BME280;13848;49.018;12.078;2023-04-04T02:58:23;98451.88;;;0.85;51.77
26083;BME280;13848;49.018;12.078;2023-04-04T03:00:53;98448.94;;;0.88;51.07
26083;BME280;13848;49.018;12.078;2023-04-04T03:03:19;98444.91;;;0.84;51.95
26083;BME280;13848;49.018;12.078;2023-04-04T03:05:44;98452.75;;;0.75;51.10
26083;BME280;13848;49.018;12.078;2023-04-04T03:08:12;98447.44;;;0.66;51.42
26083;BME280;13848;49.018;12.078;2023-04-04T03:10:38;98451.91;;;0.65;52.48
26083;BME280;13848;49.018;12.078;2023-04-04T03:13:03;98439.06;;;0.61;51.89
26083;BME280;13848;49.018;12.078;2023-04-04T03:15:29;98440.72;;;0.62;51.77
26083;BME280;13848;49.018;12.078;2023-04-04T03:17:55;98447.16;;;0.59;52.49
26083;BME280;13848;49.018;12.078;2023-04-04T03:20:21;98441.84;;;0.59;52.45
26083;BME280;13848;49.018;12.078;2023-04-04T03:22:47;98441.44;;;0.54;53.09
26083;BME280;13848;49.018;12.078;2023-04-04T03:25:15;98445.19;;;0.51;53.26
26083;BME280;13848;49.018;12.078;2023-04-04T03:27:41;98435.41;;;0.52;52.94
26083;BME280;13848;49.018;12.078;2023-04-04T03:30:07;98445.34;;;0.50;52.92
26083;BME280;13848;49.018;12.078;2023-04-04T03:32:34;98435.69;;;0.49;53.73
26083;BME280;13848;49.018;12.078;2023-04-04T03:35:00;98437.09;;;0.53;53.09
26083;BME280;13848;49.018;12.078;2023-04-04T03:37:28;98442.41;;;0.53;53.08
26083;BME280;13848;49.018;12.078;2023-04-04T03:39:54;98437.38;;;0.50;53.23
26083;BME280;13848;49.018;12.078;2023-04-04T03:42:21;98435.69;;;0.39;53.76
26083;BME280;13848;49.018;12.078;2023-04-04T03:44:47;98440.44;;;0.36;53.70
26083;BME280;13848;49.018;12.078;2023-04-04T03:47:13;98433.44;;;0.35;53.35
26083;BME280;13848;49.018;12.078;2023-04-04T03:49:39;98435.84;;;0.38;53.88
26083;BME280;13848;49.018;12.078;2023-04-04T03:52:05;98438.75;;;0.35;54.10
26083;BME280;13848;49.018;12.078;2023-04-04T03:54:31;98439.91;;;0.42;53.66
26083;BME280;13848;49.018;12.078;2023-04-04T03:56:57;98435.56;;;0.41;53.61
26083;BME280;13848;49.018;12.078;2023-04-04T03:59:24;98433.44;;;0.35;54.20
26083;BME280;13848;49.018;12.078;2023-04-04T04:01:50;98433.47;;;0.25;53.58
26083;BME280;13848;49.018;12.078;2023-04-04T04:04:16;98440.28;;;0.28;54.51
26083;BME280;13848;49.018;12.078;2023-04-04T04:06:43;98438.63;;;0.26;54.61
26083;BME280;13848;49.018;12.078;2023-04-04T04:09:09;98435.38;;;0.23;54.08
26083;BME280;13848;49.018;12.078;2023-04-04T04:11:35;98436.25;;;0.33;54.44
26083;BME280;13848;49.018;12.078;2023-04-04T04:14:01;98436.66;;;0.29;54.43
26083;BME280;13848;49.018;12.078;2023-04-04T04:16:28;98439.84;;;0.22;54.45
26083;BME280;13848;49.018;12.078;2023-04-04T04:18:54;98434.28;;;0.25;54.29
26083;BME280;13848;49.018;12.078;2023-04-04T04:21:20;98441.81;;;0.20;53.76
26083;BME280;13848;49.018;12.078;2023-04-04T04:23:46;98444.91;;;0.25;54.88
26083;BME280;13848;49.018;12.078;2023-04-04T04:26:12;98445.75;;;0.26;54.82
26083;BME280;13848;49.018;12.078;2023-04-04T04:28:37;98451.31;;;0.13;55.59
26083;BME280;13848;49.018;12.078;2023-04-04T04:31:04;98449.63;;;0.12;55.18
26083;BME280;13848;49.018;12.078;2023-04-04T04:33:31;98450.19;;;0.06;56.19
26083;BME280;13848;49.018;12.078;2023-04-04T04:35:58;98446.00;;;0.13;56.16
26083;BME280;13848;49.018;12.078;2023-04-04T04:38:24;98454.94;;;0.12;55.38
26083;BME280;13848;49.018;12.078;2023-04-04T04:40:50;98446.44;;;0.18;55.72
26083;BME280;13848;49.018;12.078;2023-04-04T04:43:16;98450.72;;;0.10;54.94
26083;BME280;13848;49.018;12.078;2023-04-04T04:45:42;98449.03;;;-0.01;56.21
26083;BME280;13848;49.018;12.078;2023-04-04T04:48:08;98454.78;;;0.04;56.32
26083;BME280;13848;49.018;12.078;2023-04-04T04:50:35;98454.06;;;0.02;56.74
26083;BME280;13848;49.018;12.078;2023-04-04T04:53:01;98454.50;;;0.07;55.92
26083;BME280;13848;49.018;12.078;2023-04-04T04:55:27;98449.91;;;0.09;54.91
26083;BME280;13848;49.018;12.078;2023-04-04T04:57:53;98445.47;;;0.19;55.62
26083;BME280;13848;49.018;12.078;2023-04-04T05:00:19;98453.41;;;0.19;55.04
26083;BME280;13848;49.018;12.078;2023-04-04T05:02:45;98456.31;;;0.16;55.97
26083;BME280;13848;49.018;12.078;2023-04-04T05:05:11;98448.09;;;0.10;54.84
26083;BME280;13848;49.018;12.078;2023-04-04T05:07:43;98453.25;;;0.21;54.63
26083;BME280;13848;49.018;12.078;2023-04-04T05:10:09;98445.31;;;0.21;55.76
26083;BME280;13848;49.018;12.078;2023-04-04T05:12:35;98452.41;;;0.11;55.66
26083;BME280;13848;49.018;12.078;2023-04-04T05:15:01;98456.63;;;0.13;56.46
26083;BME280;13848;49.018;12.078;2023-04-04T05:17:27;98458.00;;;0.17;56.29
26083;BME280;13848;49.018;12.078;2023-04-04T05:19:53;98456.06;;;0.19;56.63
26083;BME280;13848;49.018;12.078;2023-04-04T05:22:19;98458.84;;;0.18;56.25
26083;BME280;13848;49.018;12.078;2023-04-04T05:24:47;98460.38;;;0.20;56.34
26083;BME280;13848;49.018;12.078;2023-04-04T05:27:13;98460.81;;;0.25;56.51
26083;BME280;13848;49.018;12.078;2023-04-04T05:29:38;98469.19;;;0.31;56.18
26083;BME280;13848;49.018;12.078;2023-04-04T05:32:07;98463.34;;;0.37;55.78
26083;BME280;13848;49.018;12.078;2023-04-04T05:34:33;98454.53;;;0.46;55.50
26083;BME280;13848;49.018;12.078;2023-04-04T05:36:59;98459.84;;;0.46;54.73
26083;BME280;13848;49.018;12.078;2023-04-04T05:39:25;98462.22;;;0.68;55.35
26083;BME280;13848;49.018;12.078;2023-04-04T05:41:52;98462.50;;;0.85;54.54
26083;BME280;13848;49.018;12.078;2023-04-04T05:44:18;98462.22;;;0.88;54.79
26083;BME280;13848;49.018;12.078;2023-04-04T05:46:44;98464.72;;;0.99;54.28
26083;BME280;13848;49.018;12.078;2023-04-04T05:49:10;98469.44;;;1.15;54.87
26083;BME280;13848;49.018;12.078;2023-04-04T05:51:36;98468.56;;;1.33;54.78
26083;BME280;13848;49.018;12.078;2023-04-04T05:54:02;98475.06;;;1.49;54.19
26083;BME280;13848;49.018;12.078;2023-04-04T05:56:28;98471.56;;;1.58;53.13
26083;BME280;13848;49.018;12.078;2023-04-04T05:58:55;98470.91;;;1.74;53.57
26083;BME280;13848;49.018;12.078;2023-04-04T06:01:21;98476.78;;;1.77;53.22
26083;BME280;13848;49.018;12.078;2023-04-04T06:03:47;98477.44;;;1.89;52.89
26083;BME280;13848;49.018;12.078;2023-04-04T06:06:13;98466.31;;;2.03;53.12
26083;BME280;13848;49.018;12.078;2023-04-04T06:08:39;98469.91;;;2.12;52.15
26083;BME280;13848;49.018;12.078;2023-04-04T06:11:05;98466.00;;;2.06;51.50
26083;BME280;13848;49.018;12.078;2023-04-04T06:13:31;98465.66;;;2.19;51.32
26083;BME280;13848;49.018;12.078;2023-04-04T06:15:58;98461.78;;;2.49;51.73
26083;BME280;13848;49.018;12.078;2023-04-04T06:18:24;98463.56;;;2.76;51.17
26083;BME280;13848;49.018;12.078;2023-04-04T06:20:50;98470.75;;;2.84;51.20
26083;BME280;13848;49.018;12.078;2023-04-04T06:23:15;98457.75;;;2.99;51.19
26083;BME280;13848;49.018;12.078;2023-04-04T06:25:42;98467.16;;;3.11;50.70
26083;BME280;13848;49.018;12.078;2023-04-04T06:28:08;98456.25;;;3.22;50.93
26083;BME280;13848;49.018;12.078;2023-04-04T06:30:34;98455.91;;;3.43;50.69
26083;BME280;13848;49.018;12.078;2023-04-04T06:33:02;98453.16;;;3.61;50.19
26083;BME280;13848;49.018;12.078;2023-04-04T06:35:28;98451.06;;;3.46;49.29
26083;BME280;13848;49.018;12.078;2023-04-04T06:37:54;98453.28;;;3.25;49.58
26083;BME280;13848;49.018;12.078;2023-04-04T06:40:20;98452.19;;;3.70;50.40
26083;BME280;13848;49.018;12.078;2023-04-04T06:42:47;98447.47;;;3.90;48.88
26083;BME280;13848;49.018;12.078;2023-04-04T06:45:13;98454.19;;;4.10;49.30
26083;BME280;13848;49.018;12.078;2023-04-04T06:47:39;98455.47;;;3.56;48.76
26083;BME280;13848;49.018;12.078;2023-04-04T06:50:07;98450.50;;;3.95;49.26
26083;BME280;13848;49.018;12.078;2023-04-04T06:52:33;98452.00;;;4.06;48.68
26083;BME280;13848;49.018;12.078;2023-04-04T06:54:59;98455.09;;;4.27;49.01
26083;BME280;13848;49.018;12.078;2023-04-04T06:57:25;98445.78;;;6.40;52.07
26083;BME280;13848;49.018;12.078;2023-04-04T06:59:51;98449.53;;;4.87;47.40
26083;BME280;13848;49.018;12.078;2023-04-04T07:02:17;98458.81;;;4.50;48.35
26083;BME280;13848;49.018;12.078;2023-04-04T07:04:43;98466.03;;;5.15;48.12
26083;BME280;13848;49.018;12.078;2023-04-04T07:07:11;98459.53;;;5.18;46.64
26083;BME280;13848;49.018;12.078;2023-04-04T07:09:37;98458.31;;;5.53;49.25
26083;BME280;13848;49.018;12.078;2023-04-04T07:12:03;98458.03;;;5.87;48.95
26083;BME280;13848;49.018;12.078;2023-04-04T07:14:29;98459.78;;;5.64;45.58
26083;BME280;13848;49.018;12.078;2023-04-04T07:16:55;98461.47;;;5.48;44.95
26083;BME280;13848;49.018;12.078;2023-04-04T07:19:21;98453.69;;;5.06;43.56
26083;BME280;13848;49.018;12.078;2023-04-04T07:21:47;98459.53;;;5.01;45.15
26083;BME280;13848;49.018;12.078;2023-04-04T07:24:14;98462.16;;;5.42;45.24
26083;BME280;13848;49.018;12.078;2023-04-04T07:26:40;98466.81;;;5.48;43.28
26083;BME280;13848;49.018;12.078;2023-04-04T07:29:07;98458.09;;;5.71;43.84
26083;BME280;13848;49.018;12.078;2023-04-04T07:31:33;98459.78;;;5.64;42.90
26083;BME280;13848;49.018;12.078;2023-04-04T07:33:59;98457.97;;;6.11;44.20
26083;BME280;13848;49.018;12.078;2023-04-04T07:36:25;98458.50;;;6.38;42.40
26083;BME280;13848;49.018;12.078;2023-04-04T07:38:51;98461.53;;;5.07;39.58
26083;BME280;13848;49.018;12.078;2023-04-04T07:41:18;98456.34;;;5.06;40.04
26083;BME280;13848;49.018;12.078;2023-04-04T07:43:44;98451.25;;;7.15;48.67
26083;BME280;13848;49.018;12.078;2023-04-04T07:46:10;98458.53;;;9.12;44.72
26083;BME280;13848;49.018;12.078;2023-04-04T07:48:36;98446.75;;;7.31;38.31
26083;BME280;13848;49.018;12.078;2023-04-04T07:51:03;98441.13;;;6.34;40.56
26083;BME280;13848;49.018;12.078;2023-04-04T07:53:29;98448.22;;;6.19;39.52
26083;BME280;13848;49.018;12.078;2023-04-04T07:55:55;98456.69;;;5.99;39.73
26083;BME280;13848;49.018;12.078;2023-04-04T07:58:22;98459.06;;;5.86;38.67
26083;BME280;13848;49.018;12.078;2023-04-04T08:00:48;98449.19;;;6.26;39.29
26083;BME280;13848;49.018;12.078;2023-04-04T08:03:14;98453.69;;;6.25;38.98
26083;BME280;13848;49.018;12.078;2023-04-04T08:05:40;98465.03;;;6.04;39.10
26083;BME280;13848;49.018;12.078;2023-04-04T08:08:06;98450.88;;;6.27;38.77
26083;BME280;13848;49.018;12.078;2023-04-04T08:10:32;98449.06;;;6.50;39.04
26083;BME280;13848;49.018;12.078;2023-04-04T08:12:58;98449.38;;;6.55;39.71
26083;BME280;13848;49.018;12.078;2023-04-04T08:15:25;98452.06;;;6.47;39.90
26083;BME280;13848;49.018;12.078;2023-04-04T08:17:51;98460.41;;;5.74;40.26
26083;BME280;13848;49.018;12.078;2023-04-04T08:20:17;98454.75;;;5.60;40.56
26083;BME280;13848;49.018;12.078;2023-04-04T08:22:43;98458.84;;;5.40;40.19
26083;BME280;13848;49.018;12.078;2023-04-04T08:25:09;98453.81;;;5.21;39.95
26083;BME280;13848;49.018;12.078;2023-04-04T08:27:38;98457.84;;;5.17;40.16
26083;BME280;13848;49.018;12.078;2023-04-04T08:30:06;98463.69;;;5.20;40.06
26083;BME280;13848;49.018;12.078;2023-04-04T08:32:33;98457.84;;;4.92;40.19
26083;BME280;13848;49.018;12.078;2023-04-04T08:34:59;98456.00;;;5.09;39.63
26083;BME280;13848;49.018;12.078;2023-04-04T08:37:25;98457.19;;;4.66;40.64
26083;BME280;13848;49.018;12.078;2023-04-04T08:39:51;98452.47;;;4.51;41.81
26083;BME280;13848;49.018;12.078;2023-04-04T08:42:17;98461.47;;;4.42;41.62
26083;BME280;13848;49.018;12.078;2023-04-04T08:44:44;98461.75;;;4.23;41.96
26083;BME280;13848;49.018;12.078;2023-04-04T08:47:12;98463.31;;;4.42;42.60
26083;BME280;13848;49.018;12.078;2023-04-04T08:49:42;98457.09;;;4.25;41.87
26083;BME280;13848;49.018;12.078;2023-04-04T08:52:10;98465.28;;;4.32;42.14
26083;BME280;13848;49.018;12.078;2023-04-04T08:54:37;98466.09;;;4.24;42.79
26083;BME280;13848;49.018;12.078;2023-04-04T08:57:04;98459.16;;;4.56;41.60
26083;BME280;13848;49.018;12.078;2023-04-04T08:59:31;98459.41;;;4.20;42.04
26083;BME280;13848;49.018;12.078;2023-04-04T09:02:02;98456.72;;;4.12;41.90
26083;BME280;13848;49.018;12.078;2023-04-04T09:04:30;98451.69;;;4.09;42.36
26083;BME280;13848;49.018;12.078;2023-04-04T09:06:59;98461.97;;;4.38;42.17
26083;BME280;13848;49.018;12.078;2023-04-04T09:09:26;98458.31;;;4.47;41.15
26083;BME280;13848;49.018;12.078;2023-04-04T09:11:52;98456.09;;;5.65;44.42
26083;BME280;13848;49.018;12.078;2023-04-04T09:14:19;98458.84;;;4.59;40.91
26083;BME280;13848;49.018;12.078;2023-04-04T09:16:46;98448.66;;;4.70;41.53
26083;BME280;13848;49.018;12.078;2023-04-04T09:19:12;98457.13;;;4.41;40.63
26083;BME280;13848;49.018;12.078;2023-04-04T09:21:37;98452.47;;;4.51;39.86
26083;BME280;13848;49.018;12.078;2023-04-04T09:24:05;98452.78;;;4.40;40.88
26083;BME280;13848;49.018;12.078;2023-04-04T09:26:45;98460.00;;;4.06;40.59
26083;BME280;13848;49.018;12.078;2023-04-04T09:29:11;98452.44;;;4.35;40.85
26083;BME280;13848;49.018;12.078;2023-04-04T09:31:37;98459.16;;;4.47;40.51
26083;BME280;13848;49.018;12.078;2023-04-04T09:34:04;98460.19;;;4.79;40.46
26083;BME280;13848;49.018;12.078;2023-04-04T09:36:30;98459.81;;;4.58;39.69
26083;BME280;13848;49.018;12.078;2023-04-04T09:38:56;98451.56;;;4.18;40.18
26083;BME280;13848;49.018;12.078;2023-04-04T09:41:24;98449.34;;;4.06;41.15
26083;BME280;13848;49.018;12.078;2023-04-04T09:43:50;98455.13;;;4.43;40.19
26083;BME280;13848;49.018;12.078;2023-04-04T09:46:18;98450.09;;;4.24;40.80
26083;BME280;13848;49.018;12.078;2023-04-04T09:48:47;98458.22;;;4.14;40.75
26083;BME280;13848;49.018;12.078;2023-04-04T09:51:13;98460.47;;;4.43;40.66
26083;BME280;13848;49.018;12.078;2023-04-04T09:53:40;98464.16;;;4.42;40.31
26083;BME280;13848;49.018;12.078;2023-04-04T09:56:06;98462.91;;;4.28;40.33
26083;BME280;13848;49.018;12.078;2023-04-04T09:58:35;98452.25;;;4.20;40.19
26083;BME280;13848;49.018;12.078;2023-04-04T10:01:02;98453.03;;;4.88;39.00
26083;BME280;13848;49.018;12.078;2023-04-04T10:03:29;98449.69;;;5.82;40.00
26083;BME280;13848;49.018;12.078;2023-04-04T10:05:58;98458.72;;;5.97;39.00
26083;BME280;13848;49.018;12.078;2023-04-04T10:08:26;98449.09;;;6.11;37.76
26083;BME280;13848;49.018;12.078;2023-04-04T10:10:55;98450.97;;;6.64;36.36
26083;BME280;13848;49.018;12.078;2023-04-04T10:13:22;98450.16;;;6.33;36.22
26083;BME280;13848;49.018;12.078;2023-04-04T10:15:50;98456.38;;;5.78;36.33
26083;BME280;13848;49.018;12.078;2023-04-04T10:18:17;98448.97;;;5.96;37.60
26083;BME280;13848;49.018;12.078;2023-04-04T10:20:44;98443.44;;;6.37;36.77
26083;BME280;13848;49.018;12.078;2023-04-04T10:23:13;98448.91;;;7.12;35.79
26083;BME280;13848;49.018;12.078;2023-04-04T10:25:39;98440.22;;;7.48;34.13
26083;BME280;13848;49.018;12.078;2023-04-04T10:28:05;98442.91;;;7.78;34.91
26083;BME280;13848;49.018;12.078;2023-04-04T10:30:36;98427.25;;;7.96;34.26
26083;BME280;13848;49.018;12.078;2023-04-04T10:33:07;98426.44;;;7.95;33.68
26083;BME280;13848;49.018;12.078;2023-04-04T10:35:34;98434.13;;;7.02;33.16
26083;BME280;13848;49.018;12.078;2023-04-04T10:38:02;98436.63;;;5.95;34.45
26083;BME280;13848;49.018;12.078;2023-04-04T10:40:30;98432.72;;;6.60;35.16
26083;BME280;13848;49.018;12.078;2023-04-04T10:43:02;98430.00;;;6.45;36.11
26083;BME280;13848;49.018;12.078;2023-04-04T10:45:28;98421.28;;;6.89;35.62
26083;BME280;13848;49.018;12.078;2023-04-04T10:47:56;98427.91;;;6.32;36.50
26083;BME280;13848;49.018;12.078;2023-04-04T10:50:24;98424.81;;;6.66;36.32
26083;BME280;13848;49.018;12.078;2023-04-04T10:52:51;98427.44;;;6.75;36.22
26083;BME280;13848;49.018;12.078;2023-04-04T10:55:17;98419.72;;;6.80;36.81
26083;BME280;13848;49.018;12.078;2023-04-04T10:57:45;98426.00;;;6.41;36.79
26083;BME280;13848;49.018;12.078;2023-04-04T11:00:13;98413.00;;;6.30;36.72
26083;BME280;13848;49.018;12.078;2023-04-04T11:02:47;98410.53;;;6.74;36.53
26083;BME280;13848;49.018;12.078;2023-04-04T11:05:17;98420.53;;;7.03;36.15
26083;BME280;13848;49.018;12.078;2023-04-04T11:07:45;98405.25;;;7.56;36.74
26083;BME280;13848;49.018;12.078;2023-04-04T11:10:13;98403.41;;;8.22;34.54
26083;BME280;13848;49.018;12.078;2023-04-04T11:12:42;98403.41;;;7.04;35.03
26083;BME280;13848;49.018;12.078;2023-04-04T11:15:10;98400.16;;;6.94;35.12
26083;BME280;13848;49.018;12.078;2023-04-04T11:17:43;98388.56;;;7.76;36.06
26083;BME280;13848;49.018;12.078;2023-04-04T11:20:15;98392.34;;;8.47;35.56
26083;BME280;13848;49.018;12.078;2023-04-04T11:22:42;98389.78;;;8.82;34.91
26083;BME280;13848;49.018;12.078;2023-04-04T11:25:37;98391.59;;;8.53;33.87
26083;BME280;13848;49.018;12.078;2023-04-04T11:28:06;98392.13;;;8.12;34.18
26083;BME280;13848;49.018;12.078;2023-04-04T11:30:36;98393.94;;;7.76;34.28
26083;BME280;13848;49.018;12.078;2023-04-04T11:33:02;98381.53;;;7.45;35.04
26083;BME280;13848;49.018;12.078;2023-04-04T11:35:28;98394.41;;;7.64;34.91
26083;BME280;13848;49.018;12.078;2023-04-04T11:37:58;98387.34;;;8.44;35.23
26083;BME280;13848;49.018;12.078;2023-04-04T11:40:33;98384.44;;;8.09;34.41
26083;BME280;13848;49.018;12.078;2023-04-04T11:43:06;98379.88;;;7.73;34.76
26083;BME280;13848;49.018;12.078;2023-04-04T11:45:35;98377.28;;;7.36;34.62
26083;BME280;13848;49.018;12.078;2023-04-04T11:48:02;98377.28;;;7.36;34.89
26083;BME280;13848;49.018;12.078;2023-04-04T11:50:33;98383.66;;;7.35;35.36
26083;BME280;13848;49.018;12.078;2023-04-04T11:52:59;98373.28;;;8.42;35.75
26083;BME280;13848;49.018;12.078;2023-04-04T11:55:29;98367.91;;;7.91;34.20
26083;BME280;13848;49.018;12.078;2023-04-04T11:57:54;98365.84;;;8.29;34.08
26083;BME280;13848;49.018;12.078;2023-04-04T12:00:29;98375.25;;;8.55;33.83
26083;BME280;13848;49.018;12.078;2023-04-04T12:02:55;98378.53;;;8.71;32.97
26083;BME280;13848;49.018;12.078;2023-04-04T12:05:22;98373.09;;;8.28;33.40
26083;BME280;13848;49.018;12.078;2023-04-04T12:07:48;98368.19;;;7.96;34.04
26083;BME280;13848;49.018;12.078;2023-04-04T12:10:14;98375.06;;;7.84;33.83
26083;BME280;13848;49.018;12.078;2023-04-04T12:12:40;98369.78;;;7.76;33.53
26083;BME280;13848;49.018;12.078;2023-04-04T12:15:07;98375.22;;;7.97;34.61
26083;BME280;13848;49.018;12.078;2023-04-04T12:17:39;98374.88;;;7.56;34.70
26083;BME280;13848;49.018;12.078;2023-04-04T12:20:08;98368.28;;;8.39;35.04
26083;BME280;13848;49.018;12.078;2023-04-04T12:22:34;98369.31;;;9.09;32.91
26083;BME280;13848;49.018;12.078;2023-04-04T12:25:01;98360.72;;;9.20;32.99
26083;BME280;13848;49.018;12.078;2023-04-04T12:27:27;98359.78;;;9.69;32.72
26083;BME280;13848;49.018;12.078;2023-04-04T12:29:53;98361.41;;;9.63;32.21
26083;BME280;13848;49.018;12.078;2023-04-04T12:32:19;98365.03;;;9.49;32.37
26083;BME280;13848;49.018;12.078;2023-04-04T12:34:47;98365.91;;;8.93;32.52
26083;BME280;13848;49.018;12.078;2023-04-04T12:37:13;98355.56;;;10.07;31.14
26083;BME280;13848;49.018;12.078;2023-04-04T12:39:46;98353.53;;;10.09;30.56
26083;BME280;13848;49.018;12.078;2023-04-04T12:42:12;98350.34;;;9.86;30.30
26083;BME280;13848;49.018;12.078;2023-04-04T12:44:38;98349.91;;;9.89;32.15
26083;BME280;13848;49.018;12.078;2023-04-04T12:47:06;98348.06;;;10.51;30.84
26083;BME280;13848;49.018;12.078;2023-04-04T12:49:33;98340.44;;;10.06;30.66
26083;BME280;13848;49.018;12.078;2023-04-04T12:52:05;98345.78;;;9.86;31.23
26083;BME280;13848;49.018;12.078;2023-04-04T12:54:33;98347.47;;;10.01;31.56
26083;BME280;13848;49.018;12.078;2023-04-04T12:57:02;98349.69;;;9.91;31.88
26083;BME280;13848;49.018;12.078;2023-04-04T12:59:28;98347.66;;;9.17;32.20